Time;durP1;ratioP1;P1;durP2;ratioP2;P2;SDS_P1;SDS_P2;PMS_P1;PMS_P2;Temp;Humidity;BMP_temperature;BMP_pressure;BME280_temperature;BME280_humidity;BME280_pressure;Samples;Min_cycle;Max_cycle;Signal;HPM_P1;HPM_P2
2021/10/21 00:01:17;;;;;;;3.33;1.05;;;13.90;67.90;;;;;;5025844;28;20087;-78
2021/10/21 00:03:43;;;;;;;9.13;1.35;;;13.90;68.10;;;;;;5036424;28;20021;-79
2021/10/21 00:06:09;;;;;;;2.95;1.23;;;14.00;67.80;;;;;;5025666;28;20033;-78
2021/10/21 00:08:34;;;;;;;2.75;0.70;;;14.00;68.00;;;;;;5016618;28;20076;-79
2021/10/21 00:11:00;;;;;;;2.70;0.70;;;14.00;67.80;;;;;;5016517;28;20037;-78
2021/10/21 00:13:26;;;;;;;4.90;0.70;;;14.10;68.00;;;;;;5016254;28;20063;-78
2021/10/21 00:15:52;;;;;;;4.68;1.05;;;14.10;67.90;;;;;;5016314;28;20575;-79
2021/10/21 00:18:19;;;;;;;5.85;0.90;;;14.00;68.10;;;;;;5016423;28;20065;-78
2021/10/21 00:20:45;;;;;;;4.70;1.20;;;14.20;68.10;;;;;;5015798;28;20030;-78
2021/10/21 00:23:10;;;;;;;2.45;0.80;;;14.20;68.70;;;;;;5016331;28;20048;-78
2021/10/21 00:25:36;;;;;;;4.15;0.85;;;14.10;68.90;;;;;;5046401;28;20032;-78
2021/10/21 00:28:02;;;;;;;6.00;0.90;;;14.10;69.20;;;;;;5055931;28;20506;-78
2021/10/21 00:30:31;;;;;;;2.30;0.60;;;14.10;69.40;;;;;;5022015;28;20021;-78
2021/10/21 00:32:57;;;;;;;2.25;0.60;;;14.00;70.00;;;;;;5035837;28;20033;-78
2021/10/21 00:35:23;;;;;;;3.13;0.88;;;14.00;71.40;;;;;;5036205;28;20021;-78
2021/10/21 00:37:49;;;;;;;2.38;0.80;;;14.00;71.70;;;;;;5027325;28;20036;-78
2021/10/21 00:40:15;;;;;;;9.52;1.10;;;13.90;72.20;;;;;;5016007;28;20101;-78
2021/10/21 00:42:40;;;;;;;3.85;1.00;;;13.90;72.70;;;;;;5016475;28;20026;-78
2021/10/21 00:45:07;;;;;;;5.53;1.08;;;13.90;73.30;;;;;;5015892;28;20076;-78
2021/10/21 00:47:35;;;;;;;3.35;0.90;;;14.00;73.30;;;;;;5025057;28;20034;-79
2021/10/21 00:50:01;;;;;;;5.45;0.90;;;13.80;74.20;;;;;;5035643;28;20380;-78
2021/10/21 00:52:26;;;;;;;8.60;1.10;;;13.80;74.40;;;;;;5017927;28;20030;-78
2021/10/21 00:54:53;;;;;;;3.38;0.88;;;13.80;75.00;;;;;;5015768;28;20037;-78
2021/10/21 00:57:19;;;;;;;3.17;0.90;;;13.70;75.10;;;;;;5015809;28;20038;-78
2021/10/21 00:59:47;;;;;;;7.47;1.15;;;13.70;75.50;;;;;;5014243;28;20036;-78
2021/10/21 01:02:13;;;;;;;5.40;1.23;;;13.70;75.10;;;;;;5015552;28;20507;-78
2021/10/21 01:04:40;;;;;;;5.38;0.77;;;13.60;75.20;;;;;;5015710;28;20022;-78
2021/10/21 01:07:07;;;;;;;4.38;0.93;;;13.60;75.30;;;;;;5017124;28;20057;-78
2021/10/21 01:09:35;;;;;;;3.78;1.13;;;13.50;75.50;;;;;;5035414;28;20080;-78
2021/10/21 01:12:03;;;;;;;4.57;1.00;;;13.40;75.30;;;;;;5035450;28;20438;-79
2021/10/21 01:14:29;;;;;;;4.28;1.00;;;13.30;75.50;;;;;;5035285;28;20502;-78
2021/10/21 01:16:54;;;;;;;7.15;1.13;;;13.30;74.50;;;;;;5027874;28;20136;-77
2021/10/21 01:19:25;;;;;;;5.07;1.08;;;13.20;75.10;;;;;;5015606;28;20025;-78
2021/10/21 01:21:53;;;;;;;5.10;1.35;;;13.20;74.90;;;;;;5015684;28;20026;-78
2021/10/21 01:24:19;;;;;;;7.22;1.83;;;13.20;75.00;;;;;;5021545;28;20104;-78
2021/10/21 01:26:49;;;;;;;7.78;1.85;;;13.20;75.30;;;;;;5029579;28;20052;-78
2021/10/21 01:29:19;;;;;;;9.05;1.40;;;13.20;75.20;;;;;;5015702;28;20044;-78
2021/10/21 01:31:47;;;;;;;3.28;1.00;;;13.20;74.90;;;;;;5015877;28;20034;-78
2021/10/21 01:34:14;;;;;;;6.90;1.40;;;13.20;74.80;;;;;;5018216;28;20025;-78
2021/10/21 01:36:41;;;;;;;9.43;1.45;;;13.10;74.40;;;;;;5019655;28;20034;-78
2021/10/21 01:39:09;;;;;;;5.85;1.85;;;13.20;74.80;;;;;;5019375;28;20411;-78
2021/10/21 01:41:35;;;;;;;6.35;2.13;;;13.20;74.80;;;;;;5018215;28;20518;-78
2021/10/21 01:44:05;;;;;;;5.88;1.98;;;13.10;74.70;;;;;;5019276;28;20026;-78
2021/10/21 01:46:30;;;;;;;9.90;2.08;;;13.10;75.10;;;;;;5019228;28;20026;-78
2021/10/21 01:48:56;;;;;;;8.60;1.75;;;13.10;75.00;;;;;;5018250;28;20029;-78
2021/10/21 01:51:22;;;;;;;7.90;1.70;;;13.10;75.00;;;;;;5017875;28;20033;-78
2021/10/21 01:53:48;;;;;;;6.78;1.55;;;13.10;74.90;;;;;;5019316;28;20381;-78
2021/10/21 01:56:14;;;;;;;8.80;1.88;;;13.10;75.10;;;;;;5019151;28;20476;-78
2021/10/21 01:58:39;;;;;;;7.13;1.58;;;13.10;75.00;;;;;;5019086;28;20056;-78
2021/10/21 02:01:05;;;;;;;8.38;1.67;;;13.10;74.50;;;;;;5018850;28;20554;-78
2021/10/21 02:03:31;;;;;;;4.95;1.60;;;13.10;74.90;;;;;;5017548;28;20587;-78
2021/10/21 02:05:57;;;;;;;7.43;2.15;;;13.10;74.80;;;;;;5018803;28;20044;-78
2021/10/21 02:08:23;;;;;;;10.85;2.08;;;13.00;74.60;;;;;;5018966;28;20029;-79
2021/10/21 02:10:48;;;;;;;10.75;1.60;;;13.00;74.70;;;;;;5018784;28;20018;-78
2021/10/21 02:13:14;;;;;;;9.15;2.22;;;13.00;74.90;;;;;;5018854;28;20029;-78
2021/10/21 02:15:40;;;;;;;4.03;1.40;;;12.90;74.70;;;;;;5018341;28;20077;-78
2021/10/21 02:18:06;;;;;;;4.75;1.30;;;12.90;74.90;;;;;;5018567;28;20033;-78
2021/10/21 02:20:32;;;;;;;6.70;1.40;;;12.80;74.70;;;;;;5018626;28;20594;-78
2021/10/21 02:22:58;;;;;;;5.25;1.45;;;12.80;75.40;;;;;;5018700;28;20044;-78
2021/10/21 02:25:25;;;;;;;10.65;1.83;;;12.70;75.10;;;;;;5044868;28;20062;-78
2021/10/21 02:27:50;;;;;;;6.25;2.00;;;12.80;75.50;;;;;;5017271;28;20022;-78
2021/10/21 02:30:20;;;;;;;10.73;2.20;;;12.70;75.40;;;;;;5018504;28;20448;-78
2021/10/21 02:32:46;;;;;;;7.03;1.88;;;12.70;75.70;;;;;;5018409;28;20089;-78
2021/10/21 02:35:13;;;;;;;7.28;1.55;;;12.80;75.60;;;;;;5018440;28;20022;-78
2021/10/21 02:37:39;;;;;;;14.77;2.03;;;12.80;75.50;;;;;;5018396;28;20026;-78
2021/10/21 02:40:08;;;;;;;8.18;2.03;;;12.80;75.40;;;;;;5018551;28;20026;-78
2021/10/21 02:42:33;;;;;;;10.48;1.77;;;12.80;75.40;;;;;;5018391;28;20022;-78
2021/10/21 02:44:59;;;;;;;9.32;1.67;;;12.80;75.50;;;;;;5017525;28;20030;-78
2021/10/21 02:47:25;;;;;;;7.75;1.55;;;12.80;75.30;;;;;;5017978;28;20022;-78
2021/10/21 02:49:51;;;;;;;11.18;2.08;;;12.80;75.10;;;;;;5018299;28;20365;-78
2021/10/21 02:52:16;;;;;;;9.05;1.77;;;12.80;75.40;;;;;;5018252;28;20037;-78
2021/10/21 02:54:42;;;;;;;7.80;2.10;;;12.80;75.50;;;;;;5018001;28;20431;-78
2021/10/21 02:57:08;;;;;;;6.72;1.63;;;12.70;75.80;;;;;;5016819;28;20368;-78
2021/10/21 02:59:34;;;;;;;9.65;2.17;;;12.70;75.80;;;;;;5019484;28;22109;-79
2021/10/21 03:02:00;;;;;;;7.25;1.75;;;12.70;75.90;;;;;;5037624;28;20025;-78
2021/10/21 03:04:26;;;;;;;4.82;1.60;;;12.60;76.10;;;;;;5037615;28;20590;-78
2021/10/21 03:06:52;;;;;;;10.52;2.42;;;12.60;75.80;;;;;;5032466;28;20073;-78
2021/10/21 03:09:19;;;;;;;10.00;2.05;;;12.50;76.20;;;;;;5017642;28;20030;-78
2021/10/21 03:11:44;;;;;;;6.13;1.65;;;12.60;76.10;;;;;;5016403;28;20476;-78
2021/10/21 03:14:10;;;;;;;7.95;2.40;;;12.50;76.10;;;;;;5017674;28;20025;-78
2021/10/21 03:16:36;;;;;;;17.83;2.53;;;12.60;76.10;;;;;;5017383;28;20182;-78
2021/10/21 03:19:04;;;;;;;13.10;1.80;;;12.60;76.20;;;;;;5017597;28;20488;-78
2021/10/21 03:21:33;;;;;;;9.55;2.15;;;12.50;76.10;;;;;;5017587;28;20026;-78
2021/10/21 03:23:59;;;;;;;10.07;2.47;;;12.40;75.90;;;;;;5020961;28;20029;-78
2021/10/21 03:26:25;;;;;;;9.93;2.15;;;12.40;76.40;;;;;;5057110;28;20021;-78
2021/10/21 03:28:52;;;;;;;10.32;2.13;;;12.40;76.40;;;;;;5038942;28;20106;-78
2021/10/21 03:31:18;;;;;;;6.15;1.98;;;12.40;76.60;;;;;;5017221;28;20018;-78
2021/10/21 03:33:45;;;;;;;8.30;1.80;;;12.30;76.70;;;;;;5017266;28;20033;-79
2021/10/21 03:36:10;;;;;;;5.75;1.30;;;12.30;76.70;;;;;;5015580;28;20057;-78
2021/10/21 03:38:36;;;;;;;12.05;1.95;;;12.40;76.50;;;;;;5017350;28;20065;-78
2021/10/21 03:41:03;;;;;;;4.55;1.60;;;12.20;76.60;;;;;;5017227;28;20034;-78
2021/10/21 03:43:29;;;;;;;6.00;1.90;;;12.20;76.80;;;;;;5017215;28;20049;-78
2021/10/21 03:45:56;;;;;;;12.80;2.72;;;12.10;77.20;;;;;;5015478;28;20030;-78
2021/10/21 03:48:22;;;;;;;11.57;2.35;;;12.20;77.10;;;;;;5015626;28;20044;-79
2021/10/21 03:50:47;;;;;;;6.28;2.20;;;12.30;76.90;;;;;;5017127;28;20018;-78
2021/10/21 03:53:14;;;;;;;14.43;2.25;;;12.20;76.90;;;;;;5016869;28;20026;-79
2021/10/21 03:55:43;;;;;;;9.10;2.05;;;12.30;76.30;;;;;;5015956;28;20072;-78
2021/10/21 03:58:09;;;;;;;12.35;1.98;;;12.20;76.60;;;;;;5016905;28;20034;-78
2021/10/21 04:00:35;;;;;;;10.55;2.20;;;12.20;76.40;;;;;;5016869;28;20077;-78
2021/10/21 04:03:01;;;;;;;7.63;1.98;;;12.20;76.70;;;;;;5016797;28;20076;-78
2021/10/21 04:05:27;;;;;;;6.28;1.67;;;12.20;76.60;;;;;;5016605;28;20103;-78
2021/10/21 04:07:53;;;;;;;10.88;2.80;;;12.10;76.90;;;;;;5016522;28;20058;-78
2021/10/21 04:10:19;;;;;;;5.32;1.60;;;12.00;77.20;;;;;;5016696;28;20056;-78
2021/10/21 04:12:48;;;;;;;6.70;1.63;;;12.00;76.90;;;;;;5016736;28;20026;-78
2021/10/21 04:15:13;;;;;;;6.65;1.77;;;12.10;76.80;;;;;;5015141;28;20089;-78
2021/10/21 04:17:39;;;;;;;11.98;1.75;;;12.00;76.70;;;;;;5016383;28;20026;-79
2021/10/21 04:20:06;;;;;;;9.27;2.67;;;12.00;77.20;;;;;;5015220;28;20389;-78
2021/10/21 04:22:32;;;;;;;10.60;2.08;;;11.90;77.10;;;;;;5014835;28;20067;-78
2021/10/21 04:24:58;;;;;;;10.90;2.10;;;12.00;77.30;;;;;;5036023;28;20025;-79
2021/10/21 04:27:24;;;;;;;7.25;1.70;;;12.00;77.30;;;;;;5055914;28;20078;-78
2021/10/21 04:29:53;;;;;;;9.50;1.65;;;11.90;77.50;;;;;;5038624;28;20022;-77
2021/10/21 04:32:19;;;;;;;6.95;1.95;;;12.00;77.50;;;;;;5016188;28;20026;-79
2021/10/21 04:34:44;;;;;;;6.93;2.15;;;12.00;77.50;;;;;;5016362;28;20385;-79
2021/10/21 04:37:10;;;;;;;12.63;2.42;;;12.00;77.20;;;;;;5028298;28;20083;-78
2021/10/21 04:39:36;;;;;;;8.38;2.50;;;12.00;77.40;;;;;;5035823;28;20079;-78
2021/10/21 04:42:01;;;;;;;12.45;1.73;;;12.00;77.30;;;;;;5037881;28;20047;-78
2021/10/21 04:44:27;;;;;;;8.68;1.52;;;12.00;77.40;;;;;;5052877;28;20032;-78
2021/10/21 04:46:56;;;;;;;9.30;1.95;;;12.00;77.30;;;;;;5023110;28;20495;-79
2021/10/21 04:49:22;;;;;;;6.53;1.70;;;12.00;77.20;;;;;;5017990;28;20053;-80
2021/10/21 04:51:47;;;;;;;6.07;1.90;;;12.10;77.30;;;;;;5017245;28;20026;-78
2021/10/21 04:54:13;;;;;;;6.70;1.50;;;12.20;77.10;;;;;;5015825;28;20502;-78
2021/10/21 04:56:41;;;;;;;9.85;1.38;;;12.20;77.00;;;;;;5015830;28;20493;-78
2021/10/21 04:59:07;;;;;;;7.72;2.00;;;12.20;77.30;;;;;;5015725;28;20026;-76
2021/10/21 05:01:32;;;;;;;8.60;2.33;;;12.20;77.20;;;;;;5015807;28;20443;-76
2021/10/21 05:04:01;;;;;;;11.38;2.50;;;12.10;77.80;;;;;;5032792;28;20038;-76
2021/10/21 05:06:27;;;;;;;8.93;1.90;;;12.10;77.80;;;;;;5035108;28;20079;-77
2021/10/21 05:08:53;;;;;;;4.88;1.63;;;12.10;77.80;;;;;;5034247;28;20029;-79
2021/10/21 05:11:19;;;;;;;8.48;2.00;;;12.20;78.10;;;;;;5037079;28;20124;-79
2021/10/21 05:13:44;;;;;;;6.18;1.90;;;12.20;77.60;;;;;;5044751;28;20046;-77
2021/10/21 05:16:10;;;;;;;7.80;2.08;;;12.20;77.80;;;;;;5054265;28;20060;-77
2021/10/21 05:18:37;;;;;;;9.27;2.10;;;12.20;77.70;;;;;;5040721;28;20049;-77
2021/10/21 05:21:05;;;;;;;11.30;1.92;;;12.20;77.50;;;;;;5052672;28;20498;-77
2021/10/21 05:23:31;;;;;;;12.02;2.28;;;12.20;77.60;;;;;;5045387;28;20048;-81
2021/10/21 05:25:56;;;;;;;7.47;1.63;;;12.20;77.70;;;;;;5027734;28;20460;-83
2021/10/21 05:28:22;;;;;;;11.15;1.75;;;12.20;77.70;;;;;;5014637;28;20038;-83
2021/10/21 05:30:48;;;;;;;9.68;1.95;;;12.20;77.40;;;;;;5015262;28;20057;-84
2021/10/21 05:33:13;;;;;;;8.52;1.90;;;12.20;77.70;;;;;;5012362;28;20018;-83
2021/10/21 05:35:39;;;;;;;8.48;1.80;;;12.20;77.60;;;;;;5019703;28;20403;-84
2021/10/21 05:38:10;;;;;;;9.88;1.90;;;12.20;77.40;;;;;;5035042;28;20033;-83
2021/10/21 05:40:35;;;;;;;13.45;2.53;;;12.20;77.40;;;;;;5032904;28;20029;-84
2021/10/21 05:43:01;;;;;;;6.97;2.17;;;12.20;77.40;;;;;;5034956;28;20030;-84
2021/10/21 05:45:27;;;;;;;4.45;1.60;;;12.10;77.80;;;;;;5039176;28;20036;-86
2021/10/21 05:47:52;;;;;;;10.85;2.22;;;12.00;77.90;;;;;;5032573;28;20463;-88
2021/10/21 05:50:18;;;;;;;9.32;2.92;;;12.00;78.20;;;;;;5015396;28;20375;-87
2021/10/21 05:52:45;;;;;;;9.70;1.98;;;12.10;77.80;;;;;;5038160;28;20415;-86
2021/10/21 05:55:11;;;;;;;11.77;1.88;;;12.10;78.00;;;;;;5053157;28;20022;-85
2021/10/21 05:57:36;;;;;;;11.05;2.05;;;11.90;78.60;;;;;;5034887;28;20164;-84
2021/10/21 06:00:03;;;;;;;7.95;2.00;;;12.00;78.40;;;;;;5015242;28;20037;-84
2021/10/21 06:02:29;;;;;;;5.47;1.77;;;12.10;78.20;;;;;;5014756;28;20057;-84
2021/10/21 06:04:55;;;;;;;8.00;1.38;;;12.00;78.30;;;;;;5015178;28;20116;-85
2021/10/21 06:07:20;;;;;;;10.00;2.72;;;12.10;78.20;;;;;;5014920;28;20037;-86
2021/10/21 06:09:47;;;;;;;11.00;1.65;;;12.10;78.30;;;;;;5025549;28;20573;-84
2021/10/21 06:12:15;;;;;;;8.40;1.90;;;12.10;78.50;;;;;;5034948;28;20035;-85
2021/10/21 06:14:40;;;;;;;5.60;1.40;;;12.10;78.70;;;;;;5029596;28;20029;-85
2021/10/21 06:17:06;;;;;;;7.68;2.20;;;12.10;78.60;;;;;;5026995;28;20495;-86
2021/10/21 06:19:32;;;;;;;11.02;2.13;;;12.20;78.50;;;;;;5036393;28;20951;-86
2021/10/21 06:21:59;;;;;;;8.32;1.65;;;12.10;78.60;;;;;;5037122;28;20025;-85
2021/10/21 06:24:25;;;;;;;12.48;2.05;;;12.10;78.70;;;;;;5037429;28;20030;-85
2021/10/21 06:26:51;;;;;;;9.57;1.58;;;12.10;78.50;;;;;;5018473;28;20072;-85
2021/10/21 06:29:16;;;;;;;7.03;1.45;;;12.10;78.80;;;;;;5018549;28;20032;-83
2021/10/21 06:31:42;;;;;;;6.82;1.67;;;12.10;78.80;;;;;;5018503;28;20018;-84
2021/10/21 06:34:11;;;;;;;10.85;1.60;;;12.10;78.80;;;;;;5018271;28;20453;-85
2021/10/21 06:36:37;;;;;;;11.18;2.10;;;12.00;79.10;;;;;;5018321;28;20018;-84
2021/10/21 06:39:04;;;;;;;4.40;1.48;;;12.00;79.00;;;;;;5018376;28;20476;-85
2021/10/21 06:41:30;;;;;;;10.50;2.13;;;12.00;79.10;;;;;;5018326;28;20021;-84
2021/10/21 06:43:55;;;;;;;4.85;1.63;;;12.00;79.40;;;;;;5028865;28;20085;-85
2021/10/21 06:46:21;;;;;;;9.63;2.03;;;12.00;79.40;;;;;;5037707;28;20116;-85
2021/10/21 06:48:48;;;;;;;7.13;1.55;;;12.10;79.20;;;;;;5036662;28;20025;-84
2021/10/21 06:51:14;;;;;;;9.38;2.25;;;12.20;79.20;;;;;;5032423;28;20475;-85
2021/10/21 06:53:39;;;;;;;4.65;1.58;;;12.20;78.70;;;;;;5016652;28;20048;-84
2021/10/21 06:56:05;;;;;;;6.53;1.58;;;12.30;78.70;;;;;;5018109;28;20034;-85
2021/10/21 06:58:33;;;;;;;14.35;2.13;;;12.30;78.80;;;;;;5030064;28;20024;-84
2021/10/21 07:00:58;;;;;;;5.75;1.20;;;12.30;78.80;;;;;;5036635;28;20042;-83
2021/10/21 07:03:24;;;;;;;5.00;1.40;;;12.40;78.20;;;;;;5033370;28;20028;-83
2021/10/21 07:05:52;;;;;;;10.98;2.08;;;12.40;78.30;;;;;;5017841;28;20041;-84
2021/10/21 07:08:20;;;;;;;9.75;1.63;;;12.40;78.40;;;;;;5017651;28;20488;-83
2021/10/21 07:10:46;;;;;;;9.13;2.20;;;12.40;78.30;;;;;;5017760;28;20030;-83
2021/10/21 07:13:12;;;;;;;15.27;1.98;;;12.50;78.30;;;;;;5017752;28;20044;-85
2021/10/21 07:15:37;;;;;;;12.50;2.28;;;12.50;78.40;;;;;;5017386;28;20104;-83
2021/10/21 07:18:03;;;;;;;13.93;2.05;;;12.50;78.30;;;;;;5034813;28;20026;-84
2021/10/21 07:20:29;;;;;;;8.65;1.70;;;12.50;78.20;;;;;;5037362;28;20030;-85
2021/10/21 07:22:55;;;;;;;6.00;1.33;;;12.60;78.00;;;;;;5022807;28;20022;-84
2021/10/21 07:25:23;;;;;;;11.85;2.08;;;12.70;78.10;;;;;;5043456;28;20036;-84
2021/10/21 07:27:49;;;;;;;10.95;1.88;;;12.80;78.00;;;;;;5057107;28;20036;-82
2021/10/21 07:30:15;;;;;;;11.30;1.83;;;12.80;78.10;;;;;;5046843;28;20053;-83
2021/10/21 07:32:42;;;;;;;10.10;1.90;;;12.80;77.80;;;;;;5017360;28;20500;-83
2021/10/21 07:35:08;;;;;;;7.93;1.73;;;12.90;78.00;;;;;;5029963;28;20025;-84
2021/10/21 07:37:35;;;;;;;11.65;2.00;;;12.90;78.00;;;;;;5030211;28;20034;-83
2021/10/21 07:40:01;;;;;;;9.13;1.60;;;12.90;77.90;;;;;;5017299;28;20029;-83
2021/10/21 07:42:27;;;;;;;10.15;1.73;;;13.00;77.70;;;;;;5016912;28;20072;-83
2021/10/21 07:44:53;;;;;;;9.35;1.52;;;13.00;77.70;;;;;;5035526;28;20044;-84
2021/10/21 07:47:18;;;;;;;13.45;1.90;;;13.10;77.80;;;;;;5036639;28;20155;-84
2021/10/21 07:49:44;;;;;;;6.85;1.50;;;13.20;77.70;;;;;;5036926;28;20036;-84
2021/10/21 07:52:10;;;;;;;8.55;1.98;;;13.20;77.70;;;;;;5025118;28;20477;-84
2021/10/21 07:54:36;;;;;;;8.55;1.92;;;13.30;77.30;;;;;;5016885;28;20366;-82
2021/10/21 07:57:04;;;;;;;7.30;1.70;;;13.20;77.20;;;;;;5016897;28;20053;-82
2021/10/21 07:59:32;;;;;;;11.10;1.70;;;13.30;77.30;;;;;;5015508;28;20112;-83
2021/10/21 08:01:59;;;;;;;8.10;1.95;;;13.30;77.40;;;;;;5016774;28;20037;-82
2021/10/21 08:04:26;;;;;;;9.65;2.58;;;13.30;77.40;;;;;;5016614;28;20030;-82
2021/10/21 08:06:52;;;;;;;6.05;1.52;;;13.40;77.50;;;;;;5016627;28;20492;-82
2021/10/21 08:09:18;;;;;;;7.25;1.30;;;13.40;77.50;;;;;;5016384;28;20164;-83
2021/10/21 08:11:46;;;;;;;8.48;1.52;;;13.50;77.40;;;;;;5016571;28;20504;-83
2021/10/21 08:14:12;;;;;;;12.18;2.67;;;13.60;77.30;;;;;;5015151;28;20026;-83
2021/10/21 08:16:38;;;;;;;12.70;1.80;;;13.70;77.10;;;;;;5016311;28;20058;-82
2021/10/21 08:19:04;;;;;;;7.80;2.05;;;13.70;76.80;;;;;;5016556;28;20029;-82
2021/10/21 08:21:34;;;;;;;10.27;1.95;;;13.80;77.10;;;;;;5016544;28;20436;-83
2021/10/21 08:24:01;;;;;;;;;;;13.80;77.00;;;;;;5020664;28;20017;-82
2021/10/21 08:26:27;;;;;;;7.65;1.38;;;13.90;77.50;;;;;;5055842;28;19908;-81
2021/10/21 08:28:53;;;;;;;16.67;2.38;;;13.90;77.10;;;;;;5055859;28;20040;-82
2021/10/21 08:31:19;;;;;;;7.97;1.63;;;13.90;77.40;;;;;;5036043;28;20033;-82
2021/10/21 08:33:45;;;;;;;12.38;1.70;;;14.10;77.10;;;;;;5035861;28;20056;-82
2021/10/21 08:36:15;;;;;;;6.25;1.60;;;14.10;77.10;;;;;;5023854;28;20041;-82
2021/10/21 08:38:41;;;;;;;9.38;1.92;;;14.20;77.00;;;;;;5016073;28;20381;-82
2021/10/21 08:41:10;;;;;;;12.23;2.20;;;14.20;77.00;;;;;;5016112;28;20109;-82
2021/10/21 08:43:36;;;;;;;8.15;1.58;;;14.20;77.80;;;;;;5022307;28;20083;-83
2021/10/21 08:46:03;;;;;;;13.18;2.25;;;14.30;77.90;;;;;;5034290;28;20029;-82
2021/10/21 08:48:30;;;;;;;14.95;2.10;;;14.40;77.60;;;;;;5028193;28;20037;-82
2021/10/21 08:50:57;;;;;;;12.23;1.50;;;14.50;77.50;;;;;;5016135;28;20049;-82
2021/10/21 08:53:23;;;;;;;9.25;2.08;;;14.50;76.90;;;;;;5015760;28;20175;-83
2021/10/21 08:55:51;;;;;;;6.63;1.70;;;14.50;77.10;;;;;;5015904;28;20030;-82
2021/10/21 08:58:16;;;;;;;10.77;1.55;;;14.50;76.90;;;;;;5015606;28;20076;-82
2021/10/21 09:00:42;;;;;;;8.23;1.30;;;14.70;76.80;;;;;;5016779;28;20018;-83
2021/10/21 09:03:15;;;;;;;16.35;2.13;;;14.90;76.70;;;;;;5035680;28;20399;-82
2021/10/21 09:05:51;;;;;;;8.68;1.15;;;15.00;76.00;;;;;;5034112;28;20033;-82
2021/10/21 09:08:19;;;;;;;6.40;1.85;;;15.10;76.30;;;;;;5035518;28;20029;-81
2021/10/21 09:10:54;;;;;;;8.65;1.75;;;15.20;75.70;;;;;;5016497;28;20022;-81
2021/10/21 09:13:25;;;;;;;6.72;1.27;;;15.20;75.70;;;;;;5015640;28;20156;-83
2021/10/21 09:15:55;;;;;;;9.00;1.60;;;15.30;76.20;;;;;;5030598;28;20045;-82
2021/10/21 09:18:21;;;;;;;7.15;2.00;;;15.40;75.60;;;;;;5026803;28;20112;-82
2021/10/21 09:20:47;;;;;;;9.82;1.50;;;15.50;75.70;;;;;;5015611;28;20082;-83
2021/10/21 09:23:17;;;;;;;8.93;1.95;;;15.40;75.30;;;;;;5015582;28;20022;-82
2021/10/21 09:25:44;;;;;;;;;;;15.60;75.60;;;;;;5047827;28;20022;-84
2021/10/21 09:28:27;;;;;;;13.85;1.98;;;15.70;75.40;;;;;;5053939;28;19904;-83
2021/10/21 09:31:12;;;;;;;9.43;1.90;;;15.90;75.50;;;;;;5017732;28;20038;-83
2021/10/21 09:33:49;;;;;;;11.23;2.05;;;16.00;75.10;;;;;;5014213;28;20026;-82
2021/10/21 09:36:20;;;;;;;10.20;1.77;;;16.10;74.90;;;;;;5015395;28;20022;-82
2021/10/21 09:38:55;;;;;;;8.02;1.45;;;16.20;75.10;;;;;;5015438;28;20026;-84
2021/10/21 09:41:22;;;;;;;13.75;1.92;;;16.30;74.80;;;;;;5015289;28;20064;-84
2021/10/21 09:43:58;;;;;;;12.40;2.97;;;16.30;74.90;;;;;;5025231;28;20018;-83
2021/10/21 09:46:41;;;;;;;12.05;1.77;;;16.40;74.30;;;;;;5034900;28;20056;-83
2021/10/21 09:49:33;;;;;;;8.73;1.85;;;16.60;74.10;;;;;;5035132;28;20028;-82
2021/10/21 09:52:04;;;;;;;9.73;1.75;;;16.70;74.20;;;;;;5015314;28;20074;-82
2021/10/21 09:54:30;;;;;;;8.00;1.65;;;16.60;74.50;;;;;;5017237;28;20049;-83
2021/10/21 09:57:18;;;;;;;9.07;1.77;;;16.60;74.90;;;;;;5018944;28;20030;-83
2021/10/21 10:00:04;;;;;;;9.75;1.55;;;16.50;74.90;;;;;;5019250;28;20029;-84
2021/10/21 10:02:35;;;;;;;8.38;1.55;;;16.50;75.00;;;;;;5018900;28;20026;-82
2021/10/21 10:05:04;;;;;;;12.93;2.17;;;16.50;75.10;;;;;;5017290;28;20112;-83
2021/10/21 10:07:33;;;;;;;7.72;2.30;;;16.60;75.30;;;;;;5018902;28;20026;-83
2021/10/21 10:10:00;;;;;;;6.15;1.30;;;16.80;75.80;;;;;;5018893;28;20021;-83
2021/10/21 10:12:38;;;;;;;12.02;1.80;;;17.10;74.40;;;;;;5017520;28;20113;-83
2021/10/21 10:15:06;;;;;;;14.10;2.13;;;17.50;73.70;;;;;;5018723;28;20106;-84
2021/10/21 10:17:32;;;;;;;9.95;2.00;;;17.90;72.90;;;;;;5018619;28;20030;-84
2021/10/21 10:19:58;;;;;;;10.77;2.08;;;18.00;71.40;;;;;;5018722;28;20030;-84
2021/10/21 10:22:33;;;;;;;5.60;1.40;;;17.90;71.90;;;;;;5018720;28;20048;-84
2021/10/21 10:24:59;;;;;;;6.72;1.63;;;17.80;72.30;;;;;;5037117;28;20029;-83
2021/10/21 10:27:28;;;;;;;4.32;1.17;;;17.60;72.30;;;;;;5039621;28;20112;-83
2021/10/21 10:30:02;;;;;;;9.00;1.25;;;17.40;73.60;;;;;;5038292;28;20065;-83
2021/10/21 10:32:42;;;;;;;5.38;1.25;;;17.30;73.70;;;;;;5022437;28;20397;-84
2021/10/21 10:35:11;;;;;;;7.95;2.00;;;17.50;73.60;;;;;;5018242;28;20492;-84
2021/10/21 10:37:45;;;;;;;8.48;1.23;;;17.50;73.50;;;;;;5019041;28;20053;-84
2021/10/21 10:40:13;;;;;;;6.25;1.65;;;17.50;73.10;;;;;;5036875;28;20030;-82
2021/10/21 10:42:41;;;;;;;6.30;0.98;;;17.40;73.50;;;;;;5037819;28;20025;-83
2021/10/21 10:45:09;;;;;;;8.13;1.20;;;17.20;74.30;;;;;;5037970;28;20021;-84
2021/10/21 10:47:44;;;;;;;6.50;1.50;;;17.30;74.50;;;;;;5032415;28;20042;-84
2021/10/21 10:50:22;;;;;;;6.95;1.40;;;17.20;74.80;;;;;;5017910;28;20029;-84
2021/10/21 10:53:00;;;;;;;1.98;0.85;;;17.20;76.30;;;;;;5018125;28;20341;-82
2021/10/21 10:55:39;;;;;;;6.55;1.20;;;17.00;76.60;;;;;;5018012;28;20026;-82
2021/10/21 10:58:14;;;;;;;4.85;1.20;;;16.80;77.70;;;;;;5017917;28;20030;-84
2021/10/21 11:00:51;;;;;;;9.07;1.48;;;16.80;78.40;;;;;;5034750;28;20033;-83
2021/10/21 11:03:33;;;;;;;9.60;1.23;;;16.70;78.90;;;;;;5033872;28;20029;-83
2021/10/21 11:06:02;;;;;;;7.75;1.20;;;16.70;79.30;;;;;;5017081;28;20200;-83
2021/10/21 11:08:52;;;;;;;3.65;0.90;;;16.70;79.40;;;;;;5017911;28;20518;-83
2021/10/21 11:11:51;;;;;;;6.57;1.15;;;16.60;79.70;;;;;;5017658;28;20033;-83
2021/10/21 11:14:21;;;;;;;6.68;1.33;;;16.30;80.00;;;;;;5017480;28;20025;-83
2021/10/21 11:16:48;;;;;;;8.30;1.50;;;16.30;80.50;;;;;;5032506;28;20069;-83
2021/10/21 11:19:36;;;;;;;4.45;1.65;;;16.20;81.00;;;;;;5017661;28;20038;-82
2021/10/21 11:22:03;;;;;;;5.13;1.42;;;16.20;81.30;;;;;;5017556;28;20030;-83
2021/10/21 11:24:47;;;;;;;8.77;1.23;;;16.20;81.50;;;;;;5029382;28;20433;-83
2021/10/21 11:27:23;;;;;;;6.53;1.33;;;16.20;82.00;;;;;;5035485;28;20044;-83
2021/10/21 11:29:51;;;;;;;9.35;1.65;;;16.20;81.30;;;;;;5017519;28;20148;-84
2021/10/21 11:32:17;;;;;;;3.90;1.20;;;16.20;81.10;;;;;;5017353;28;20072;-83
2021/10/21 11:34:49;;;;;;;3.92;1.30;;;16.20;81.00;;;;;;5017346;28;20086;-83
2021/10/21 11:37:31;;;;;;;6.07;2.20;;;16.20;80.80;;;;;;5017386;28;20041;-83
2021/10/21 11:39:56;;;;;;;7.20;1.55;;;16.30;80.90;;;;;;5015830;28;20037;-83
2021/10/21 11:42:27;;;;;;;4.63;0.88;;;16.50;80.70;;;;;;5017076;28;20038;-83
2021/10/21 11:45:10;;;;;;;1.92;0.65;;;16.50;79.60;;;;;;5016250;28;20040;-83
2021/10/21 11:47:38;;;;;;;3.25;0.80;;;16.60;78.60;;;;;;5016832;28;20049;-84
2021/10/21 11:50:07;;;;;;;2.05;0.77;;;16.80;78.80;;;;;;5017409;28;20026;-84
2021/10/21 11:52:44;;;;;;;3.13;0.70;;;16.80;78.40;;;;;;5017090;28;20037;-83
2021/10/21 11:55:21;;;;;;;3.55;0.77;;;16.80;78.60;;;;;;5017228;28;20053;-84
2021/10/21 11:57:47;;;;;;;1.13;0.73;;;16.90;78.40;;;;;;5016818;28;20033;-83
2021/10/21 12:00:20;;;;;;;3.42;0.55;;;16.90;77.70;;;;;;5019044;28;20034;-83
2021/10/21 12:02:45;;;;;;;3.13;0.57;;;16.90;76.80;;;;;;5025455;28;20556;-83
2021/10/21 12:05:11;;;;;;;2.83;0.40;;;16.90;76.80;;;;;;5016336;28;20042;-83
2021/10/21 12:07:37;;;;;;;5.45;0.88;;;16.90;77.50;;;;;;5016277;28;20125;-83
2021/10/21 12:10:03;;;;;;;2.78;0.47;;;17.00;76.80;;;;;;5035954;28;20114;-84
2021/10/21 12:12:45;;;;;;;3.75;0.73;;;17.10;77.30;;;;;;5031209;28;20029;-83
2021/10/21 12:15:11;;;;;;;3.85;0.77;;;17.00;76.50;;;;;;5016498;28;20042;-84
2021/10/21 12:17:37;;;;;;;2.63;0.85;;;17.20;76.60;;;;;;5015546;28;20021;-84
2021/10/21 12:20:03;;;;;;;3.92;1.02;;;17.20;75.40;;;;;;5016461;28;20041;-84
2021/10/21 12:22:32;;;;;;;2.90;1.00;;;17.20;76.40;;;;;;5016429;28;20125;-84
2021/10/21 12:24:58;;;;;;;2.85;0.77;;;17.30;76.50;;;;;;5036107;28;20021;-84
2021/10/21 12:27:24;;;;;;;2.40;0.60;;;17.40;75.10;;;;;;5055943;28;20090;-84
2021/10/21 12:30:00;;;;;;;4.13;0.82;;;17.60;74.00;;;;;;5047654;28;20026;-83
2021/10/21 12:32:26;;;;;;;3.10;0.70;;;17.60;74.00;;;;;;5016141;28;20035;-84
2021/10/21 12:35:05;;;;;;;1.65;0.50;;;17.50;74.00;;;;;;5014857;28;20022;-85
2021/10/21 12:37:40;;;;;;;1.83;0.77;;;17.30;74.60;;;;;;5015862;28;20026;-84
2021/10/21 12:40:16;;;;;;;3.50;0.80;;;17.30;74.30;;;;;;5016006;28;20053;-84
2021/10/21 12:42:42;;;;;;;5.55;0.90;;;17.10;74.80;;;;;;5016618;28;20048;-84
2021/10/21 12:45:09;;;;;;;1.60;0.60;;;16.90;74.50;;;;;;5034180;28;20507;-84
2021/10/21 12:47:37;;;;;;;1.92;0.88;;;16.80;75.70;;;;;;5034303;28;20475;-84
2021/10/21 12:50:10;;;;;;;3.17;0.95;;;16.70;75.70;;;;;;5023713;28;20030;-84